createdAt,value
2019-02-11T00:00:49.353Z,1002.29
2019-02-11T00:01:49.238Z,1002.35
2019-02-11T00:02:49.126Z,1002.35
2019-02-11T00:03:49.170Z,1002.37
2019-02-11T00:04:48.952Z,1002.39
2019-02-11T00:05:48.978Z,1002.42
2019-02-11T00:06:48.781Z,1002.46
2019-02-11T00:07:48.819Z,1002.50
2019-02-11T00:08:48.604Z,1002.51
2019-02-11T00:09:48.595Z,1002.51
2019-02-11T00:10:48.430Z,1002.57
2019-02-11T00:11:48.403Z,1002.64
2019-02-11T00:12:48.272Z,1002.64
2019-02-11T00:13:48.171Z,1002.66
2019-02-11T00:14:48.219Z,1002.72
2019-02-11T00:15:47.994Z,1002.70
2019-02-11T00:16:47.908Z,1002.71
2019-02-11T00:17:47.865Z,1002.80
2019-02-11T00:18:47.733Z,1002.85
2019-02-11T00:19:47.648Z,1002.76
2019-02-11T00:20:47.647Z,1002.82
2019-02-11T00:21:47.474Z,1002.84
2019-02-11T00:22:47.401Z,1002.81
2019-02-11T00:23:47.456Z,1002.85
2019-02-11T00:24:47.212Z,1002.89
2019-02-11T00:25:47.124Z,1002.89
2019-02-11T00:26:47.070Z,1002.96
2019-02-11T00:27:46.967Z,1002.95
2019-02-11T00:28:46.873Z,1002.98
2019-02-11T00:29:46.884Z,1003.02
2019-02-11T00:30:46.693Z,1003.05
2019-02-11T00:31:46.692Z,1003.03
2019-02-11T00:32:46.560Z,1003.06
2019-02-11T00:33:46.498Z,1003.11
2019-02-11T00:34:46.345Z,1003.08
2019-02-11T00:35:46.308Z,1003.14
2019-02-11T00:36:46.166Z,1003.18
2019-02-11T00:37:47.578Z,1003.15
2019-02-11T00:38:45.993Z,1003.20
2019-02-11T00:39:45.926Z,1003.19
2019-02-11T00:40:45.820Z,1003.25
2019-02-11T00:41:45.939Z,1003.26
2019-02-11T00:42:45.661Z,1003.28
2019-02-11T00:43:45.746Z,1003.31
2019-02-11T00:44:45.474Z,1003.37
2019-02-11T00:45:45.554Z,1003.36
2019-02-11T00:46:45.335Z,1003.37
2019-02-11T00:47:45.394Z,1003.41
2019-02-11T00:48:45.126Z,1003.42
2019-02-11T00:49:45.044Z,1003.41
2019-02-11T00:50:44.949Z,1003.48
2019-02-11T00:51:44.983Z,1003.48
2019-02-11T00:52:44.789Z,1003.47
2019-02-11T00:53:44.788Z,1003.50
2019-02-11T00:54:44.604Z,1003.57
2019-02-11T00:55:44.513Z,1003.57
2019-02-11T00:56:44.602Z,1003.58
2019-02-11T00:57:44.357Z,1003.59
2019-02-11T00:58:44.255Z,1003.57
2019-02-11T00:59:44.217Z,1003.61
2019-02-11T01:00:44.089Z,1003.74
2019-02-11T01:01:44.022Z,1003.77
2019-02-11T01:02:43.922Z,1003.82
2019-02-11T01:03:44.035Z,1003.83
2019-02-11T01:04:43.731Z,1003.81
2019-02-11T01:05:43.843Z,1003.79
2019-02-11T01:06:43.558Z,1003.93
2019-02-11T01:07:43.684Z,1003.92
2019-02-11T01:08:43.383Z,1003.95
2019-02-11T01:09:43.300Z,1004.02
2019-02-11T01:10:43.268Z,1003.99
2019-02-11T01:11:43.122Z,1004.04
2019-02-11T01:12:43.051Z,1004.10
2019-02-11T01:13:43.078Z,1004.15
2019-02-11T01:14:42.866Z,1004.12
2019-02-11T01:15:42.817Z,1004.13
2019-02-11T01:16:42.895Z,1004.19
2019-02-11T01:17:42.618Z,1004.20
2019-02-11T01:18:42.700Z,1004.21
2019-02-11T01:19:42.425Z,1004.21
2019-02-11T01:20:42.510Z,1004.26
2019-02-11T01:21:42.253Z,1004.29
2019-02-11T01:22:42.351Z,1004.32
2019-02-11T01:23:42.078Z,1004.32
2019-02-11T01:24:41.990Z,1004.33
2019-02-11T01:25:41.928Z,1004.31
2019-02-11T01:26:41.818Z,1004.29
2019-02-11T01:27:41.762Z,1004.36
2019-02-11T01:28:41.743Z,1004.36
2019-02-11T01:29:41.583Z,1004.37
2019-02-11T01:30:41.468Z,1004.38
2019-02-11T01:31:41.559Z,1004.46
2019-02-11T01:32:41.294Z,1004.47
2019-02-11T01:33:41.397Z,1004.56
2019-02-11T01:34:41.121Z,1004.50
2019-02-11T01:35:41.178Z,1004.57
2019-02-11T01:36:40.945Z,1004.51
2019-02-11T01:37:40.985Z,1004.54
2019-02-11T01:38:40.788Z,1004.54
2019-02-11T01:39:40.791Z,1004.59
2019-02-11T01:40:40.597Z,1004.55
2019-02-11T01:41:40.515Z,1004.61
2019-02-11T01:42:40.607Z,1004.59
2019-02-11T01:43:40.350Z,1004.56
2019-02-11T01:44:40.383Z,1004.57
2019-02-11T01:45:40.218Z,1004.66
2019-02-11T01:46:40.169Z,1004.63
2019-02-11T01:47:39.996Z,1004.66
2019-02-11T01:48:40.063Z,1004.70
2019-02-11T01:49:39.814Z,1004.71
2019-02-11T01:50:39.731Z,1004.69
2019-02-11T01:51:39.847Z,1004.73
2019-02-11T01:52:39.554Z,1004.71
2019-02-11T01:53:39.687Z,1004.69
2019-02-11T01:54:39.379Z,1004.75
2019-02-11T01:55:39.291Z,1004.68
2019-02-11T01:56:39.270Z,1004.69
2019-02-11T01:57:39.118Z,1004.70
2019-02-11T01:58:39.045Z,1004.75
2019-02-11T01:59:39.081Z,1004.74
2019-02-11T02:00:38.858Z,1004.79
2019-02-11T02:01:38.890Z,1004.86
2019-02-11T02:02:38.682Z,1004.86
2019-02-11T02:03:38.731Z,1004.89
2019-02-11T02:04:38.511Z,1004.93
2019-02-11T02:05:38.423Z,1004.90
2019-02-11T02:06:38.516Z,1004.89
2019-02-11T02:07:38.247Z,1004.96
2019-02-11T02:08:38.175Z,1004.95
2019-02-11T02:09:38.126Z,1004.94
2019-02-11T02:10:37.988Z,1004.94
2019-02-11T02:11:37.931Z,1004.94
2019-02-11T02:12:37.813Z,1004.95
2019-02-11T02:13:44.651Z,1005.00
2019-02-11T02:14:37.639Z,1004.99
2019-02-11T02:15:37.554Z,1005.01
2019-02-11T02:16:37.470Z,1005.04
2019-02-11T02:17:37.766Z,1005.10
2019-02-11T02:18:37.329Z,1005.10
2019-02-11T02:19:37.206Z,1005.07
2019-02-11T02:20:37.117Z,1005.12
2019-02-11T02:21:37.183Z,1005.23
2019-02-11T02:22:36.944Z,1005.19
2019-02-11T02:23:36.870Z,1005.23
2019-02-11T02:24:36.789Z,1005.27
2019-02-11T02:25:36.683Z,1005.30
2019-02-11T02:26:36.597Z,1005.30
2019-02-11T02:27:36.607Z,1005.30
2019-02-11T02:28:36.437Z,1005.35
2019-02-11T02:29:36.336Z,1005.37
2019-02-11T02:30:36.441Z,1005.42
2019-02-11T02:31:36.167Z,1005.43
2019-02-11T02:32:36.229Z,1005.43
2019-02-11T02:33:36.002Z,1005.48
2019-02-11T02:34:36.035Z,1005.46
2019-02-11T02:35:35.813Z,1005.55
2019-02-11T02:36:35.729Z,1005.60
2019-02-11T02:37:35.850Z,1005.59
2019-02-11T02:38:35.569Z,1005.61
2019-02-11T02:39:35.465Z,1005.65
2019-02-11T02:40:35.462Z,1005.67
2019-02-11T02:41:35.301Z,1005.64
2019-02-11T02:42:35.269Z,1005.67
2019-02-11T02:43:35.130Z,1005.68
2019-02-11T02:44:35.078Z,1005.71
2019-02-11T02:45:34.944Z,1005.71
2019-02-11T02:46:34.856Z,1005.70
2019-02-11T02:47:34.894Z,1005.70
2019-02-11T02:48:34.706Z,1005.74
2019-02-11T02:49:34.597Z,1005.71
2019-02-11T02:50:34.708Z,1005.73
2019-02-11T02:51:34.426Z,1005.71
2019-02-11T02:52:34.517Z,1005.76
2019-02-11T02:53:34.270Z,1005.74
2019-02-11T02:54:34.325Z,1005.76
2019-02-11T02:55:34.072Z,1005.77
2019-02-11T02:56:33.988Z,1005.72
2019-02-11T02:57:33.943Z,1005.82
2019-02-11T02:58:33.828Z,1005.81
2019-02-11T02:59:33.728Z,1005.77
2019-02-11T03:00:33.959Z,1005.80
2019-02-11T03:01:33.557Z,1005.78
2019-02-11T03:02:33.468Z,1005.78
2019-02-11T03:03:33.598Z,1005.88
2019-02-11T03:04:33.292Z,1005.95
2019-02-11T03:05:33.205Z,1005.92
2019-02-11T03:06:33.226Z,1005.96
2019-02-11T03:07:33.032Z,1005.95
2019-02-11T03:08:33.016Z,1006.05
2019-02-11T03:09:32.876Z,1006.00
2019-02-11T03:10:32.792Z,1006.04
2019-02-11T03:11:32.685Z,1006.08
2019-02-11T03:12:32.596Z,1006.13
2019-02-11T03:13:32.609Z,1006.13
2019-02-11T03:14:32.437Z,1006.18
2019-02-11T03:15:32.337Z,1006.20
2019-02-11T03:16:32.422Z,1006.25
2019-02-11T03:17:32.167Z,1006.26
2019-02-11T03:18:32.075Z,1006.29
2019-02-11T03:19:32.066Z,1006.30
2019-02-11T03:20:31.901Z,1006.33
2019-02-11T03:21:31.816Z,1006.37
2019-02-11T03:22:31.848Z,1006.37
2019-02-11T03:23:31.646Z,1006.41
2019-02-11T03:24:31.569Z,1006.44
2019-02-11T03:25:31.662Z,1006.45
2019-02-11T03:26:31.387Z,1006.40
2019-02-11T03:27:31.295Z,1006.47
2019-02-11T03:28:31.208Z,1006.50
2019-02-11T03:29:31.315Z,1006.49
2019-02-11T03:30:31.035Z,1006.52
2019-02-11T03:31:30.949Z,1006.52
2019-02-11T03:32:30.897Z,1006.50
2019-02-11T03:33:30.897Z,1006.46
2019-02-11T03:34:30.703Z,1006.51
2019-02-11T03:35:30.599Z,1006.51
2019-02-11T03:36:30.713Z,1006.59
2019-02-11T03:37:30.428Z,1006.58
2019-02-11T03:38:30.342Z,1006.57
2019-02-11T03:39:30.356Z,1006.61
2019-02-11T03:40:30.176Z,1006.53
2019-02-11T03:41:30.079Z,1006.59
2019-02-11T03:42:30.136Z,1006.57
2019-02-11T03:43:29.909Z,1006.60
2019-02-11T03:44:29.978Z,1006.67
2019-02-11T03:45:29.735Z,1006.71
2019-02-11T03:46:29.843Z,1006.70
2019-02-11T03:47:29.559Z,1006.73
2019-02-11T03:48:29.563Z,1006.75
2019-02-11T03:49:29.412Z,1006.75
2019-02-11T03:50:29.375Z,1006.76
2019-02-11T03:51:29.216Z,1006.81
2019-02-11T03:52:29.124Z,1006.81
2019-02-11T03:53:29.189Z,1006.87
2019-02-11T03:54:28.965Z,1006.83
2019-02-11T03:55:28.872Z,1006.85
2019-02-11T03:56:28.798Z,1006.87
2019-02-11T03:57:28.691Z,1006.94
2019-02-11T03:58:28.616Z,1006.94
2019-02-11T03:59:28.644Z,1007.02
2019-02-11T04:00:28.432Z,1007.03
2019-02-11T04:01:28.344Z,1007.02
2019-02-11T04:02:28.427Z,1007.07
2019-02-11T04:03:28.170Z,1007.07
2019-02-11T04:04:28.275Z,1007.10
2019-02-11T04:05:27.997Z,1007.09
2019-02-11T04:06:27.911Z,1007.08
2019-02-11T04:07:27.834Z,1007.10
2019-02-11T04:08:27.737Z,1007.13
2019-02-11T04:09:27.665Z,1007.19
2019-02-11T04:10:27.659Z,1007.14
2019-02-11T04:11:27.478Z,1007.19
2019-02-11T04:12:27.399Z,1007.27
2019-02-11T04:13:27.482Z,1007.31
2019-02-11T04:14:27.233Z,1007.30
2019-02-11T04:15:27.129Z,1007.32
2019-02-11T04:16:27.088Z,1007.30
2019-02-11T04:17:26.973Z,1007.35
2019-02-11T04:18:26.872Z,1007.40
2019-02-11T04:19:26.932Z,1007.34
2019-02-11T04:20:26.696Z,1007.41
2019-02-11T04:21:26.627Z,1007.50
2019-02-11T04:22:26.715Z,1007.46
2019-02-11T04:23:26.437Z,1007.46
2019-02-11T04:24:26.555Z,1007.44
2019-02-11T04:25:26.268Z,1007.48
2019-02-11T04:26:26.332Z,1007.52
2019-02-11T04:27:26.088Z,1007.51
2019-02-11T04:28:26.002Z,1007.51
2019-02-11T04:29:25.985Z,1007.57
2019-02-11T04:30:25.835Z,1007.61
2019-02-11T04:31:25.745Z,1007.61
2019-02-11T04:32:25.760Z,1007.70
2019-02-11T04:33:25.569Z,1007.68
2019-02-11T04:34:25.496Z,1007.73
2019-02-11T04:35:25.572Z,1007.73
2019-02-11T04:36:25.308Z,1007.70
2019-02-11T04:37:25.226Z,1007.75
2019-02-11T04:38:25.182Z,1007.79
2019-02-11T04:39:25.094Z,1007.82
2019-02-11T04:40:25.023Z,1007.84
2019-02-11T04:41:24.877Z,1007.82
2019-02-11T04:42:24.789Z,1007.87
2019-02-11T04:43:24.710Z,1007.86
2019-02-11T04:44:33.632Z,1007.92
2019-02-11T04:45:24.547Z,1007.92
2019-02-11T04:46:24.449Z,1007.98
2019-02-11T04:47:24.365Z,1007.99
2019-02-11T04:48:24.271Z,1007.93
2019-02-11T04:49:24.189Z,1007.96
2019-02-11T04:50:24.111Z,1008.02
2019-02-11T04:51:24.039Z,1008.00
2019-02-11T04:52:23.926Z,1008.02
2019-02-11T04:53:24.052Z,1008.07
2019-02-11T04:54:23.813Z,1008.04
2019-02-11T04:55:23.895Z,1008.08
2019-02-11T04:56:23.578Z,1008.11
2019-02-11T04:57:23.490Z,1008.13
2019-02-11T04:58:23.473Z,1008.13
2019-02-11T04:59:23.317Z,1008.18
2019-02-11T05:00:23.246Z,1008.18
2019-02-11T05:01:23.287Z,1008.17
2019-02-11T05:02:23.055Z,1008.18
2019-02-11T05:03:22.974Z,1008.19
2019-02-11T05:04:23.104Z,1008.23
2019-02-11T05:05:22.816Z,1008.30
2019-02-11T05:06:22.713Z,1008.30
2019-02-11T05:07:22.730Z,1008.28
2019-02-11T05:08:22.539Z,1008.35
2019-02-11T05:09:22.466Z,1008.33
2019-02-11T05:10:22.380Z,1008.37
2019-02-11T05:11:22.327Z,1008.36
2019-02-11T05:12:22.194Z,1008.42
2019-02-11T05:13:22.139Z,1008.44
2019-02-11T05:14:22.019Z,1008.43
2019-02-11T05:15:21.978Z,1008.39
2019-02-11T05:16:21.854Z,1008.43
2019-02-11T05:17:21.960Z,1008.42
2019-02-11T05:18:21.674Z,1008.48
2019-02-11T05:19:21.584Z,1008.48
2019-02-11T05:20:21.601Z,1008.53
2019-02-11T05:21:21.418Z,1008.54
2019-02-11T05:22:21.326Z,1008.56
2019-02-11T05:23:21.305Z,1008.61
2019-02-11T05:24:21.173Z,1008.61
2019-02-11T05:25:21.081Z,1008.60
2019-02-11T05:26:27.676Z,1008.62
2019-02-11T05:27:20.896Z,1008.66
2019-02-11T05:28:20.813Z,1008.73
2019-02-11T05:29:20.836Z,1008.70
2019-02-11T05:30:20.632Z,1008.68
2019-02-11T05:31:20.676Z,1008.69
2019-02-11T05:32:20.463Z,1008.72
2019-02-11T05:33:20.616Z,1008.79
2019-02-11T05:34:20.360Z,1008.77
2019-02-11T05:35:20.197Z,1008.75
2019-02-11T05:36:20.135Z,1008.76
2019-02-11T05:37:20.069Z,1008.78
2019-02-11T05:38:19.945Z,1008.77
2019-02-11T05:39:19.857Z,1008.84
2019-02-11T05:40:19.782Z,1008.84
2019-02-11T05:41:19.693Z,1008.88
2019-02-11T05:42:19.597Z,1008.91
2019-02-11T05:43:19.598Z,1008.92
2019-02-11T05:44:19.420Z,1008.91
2019-02-11T05:45:19.342Z,1008.87
2019-02-11T05:46:19.345Z,1008.85
2019-02-11T05:47:19.161Z,1008.88
2019-02-11T05:48:19.079Z,1008.83
2019-02-11T05:49:25.658Z,1008.86
2019-02-11T05:50:18.904Z,1008.94
2019-02-11T05:51:18.937Z,1008.96
2019-02-11T05:52:18.729Z,1008.99
2019-02-11T05:53:18.648Z,1009.06
2019-02-11T05:54:18.599Z,1009.09
2019-02-11T05:55:18.475Z,1009.13
2019-02-11T05:56:18.398Z,1009.18
2019-02-11T05:57:18.306Z,1009.14
2019-02-11T05:58:18.242Z,1009.18
2019-02-11T05:59:18.132Z,1009.18
2019-02-11T06:00:18.039Z,1009.19
2019-02-11T06:01:17.974Z,1009.23
2019-02-11T06:02:17.866Z,1009.32
2019-02-11T06:03:17.784Z,1009.26
2019-02-11T06:04:17.693Z,1009.32
2019-02-11T06:05:17.613Z,1009.35
2019-02-11T06:06:17.532Z,1009.38
2019-02-11T06:07:17.439Z,1009.37
2019-02-11T06:08:17.345Z,1009.41
2019-02-11T06:09:17.258Z,1009.45
2019-02-11T06:10:17.200Z,1009.45
2019-02-11T06:11:17.098Z,1009.51
2019-02-11T06:12:17.025Z,1009.56
2019-02-11T06:13:16.930Z,1009.60
2019-02-11T06:14:16.837Z,1009.63
2019-02-11T06:15:16.743Z,1009.64
2019-02-11T06:16:16.666Z,1009.62
2019-02-11T06:17:16.572Z,1009.65
2019-02-11T06:18:16.486Z,1009.73
2019-02-11T06:19:16.399Z,1009.74
2019-02-11T06:20:16.308Z,1009.72
2019-02-11T06:21:16.260Z,1009.81
2019-02-11T06:22:16.133Z,1009.79
2019-02-11T06:23:16.062Z,1009.83
2019-02-11T06:24:15.965Z,1009.84
2019-02-11T06:25:15.874Z,1009.91
2019-02-11T06:26:15.821Z,1009.96
2019-02-11T06:27:15.701Z,1009.95
2019-02-11T06:28:15.613Z,1009.95
2019-02-11T06:29:15.539Z,1009.93
2019-02-11T06:30:15.443Z,1009.99
2019-02-11T06:31:15.354Z,1010.08
2019-02-11T06:32:15.296Z,1010.07
2019-02-11T06:33:15.184Z,1010.10
2019-02-11T06:34:15.095Z,1010.13
2019-02-11T06:35:15.014Z,1010.14
2019-02-11T06:36:14.921Z,1010.19
2019-02-11T06:37:14.853Z,1010.22
2019-02-11T06:38:14.758Z,1010.21
2019-02-11T06:39:14.663Z,1010.23
2019-02-11T06:40:14.575Z,1010.27
2019-02-11T06:41:14.493Z,1010.32
2019-02-11T06:42:14.415Z,1010.33
2019-02-11T06:43:14.316Z,1010.32
2019-02-11T06:44:14.243Z,1010.39
2019-02-11T06:45:14.143Z,1010.42
2019-02-11T06:46:14.061Z,1010.56
2019-02-11T06:47:13.986Z,1010.57
2019-02-11T06:48:13.889Z,1010.57
2019-02-11T06:49:13.809Z,1010.63
2019-02-11T06:50:13.715Z,1010.60
2019-02-11T06:51:13.622Z,1010.69
2019-02-11T06:52:13.558Z,1010.69
2019-02-11T06:53:13.451Z,1010.77
2019-02-11T06:54:13.369Z,1010.82
2019-02-11T06:55:13.275Z,1010.83
2019-02-11T06:56:13.195Z,1010.88
2019-02-11T06:57:13.117Z,1010.86
2019-02-11T06:58:13.051Z,1010.90
2019-02-11T06:59:12.927Z,1010.90
2019-02-11T07:00:12.893Z,1010.97
2019-02-11T07:01:12.759Z,1010.96
2019-02-11T07:02:12.684Z,1010.99
2019-02-11T07:03:12.585Z,1011.04
2019-02-11T07:04:12.505Z,1011.07
2019-02-11T07:05:12.410Z,1011.04
2019-02-11T07:06:12.330Z,1011.07
2019-02-11T07:07:12.249Z,1011.12
2019-02-11T07:08:12.225Z,1011.15
2019-02-11T07:09:12.086Z,1011.12
2019-02-11T07:10:11.982Z,1011.18
2019-02-11T07:11:11.897Z,1011.20
2019-02-11T07:12:11.825Z,1011.27
2019-02-11T07:13:11.715Z,1011.28
2019-02-11T07:14:11.632Z,1011.26
2019-02-11T07:15:11.551Z,1011.28
2019-02-11T07:16:11.457Z,1011.36
2019-02-11T07:17:11.401Z,1011.37
2019-02-11T07:18:11.291Z,1011.30
2019-02-11T07:19:11.197Z,1011.34
2019-02-11T07:20:11.113Z,1011.37
2019-02-11T07:21:11.029Z,1011.39
2019-02-11T07:22:10.952Z,1011.45
2019-02-11T07:23:10.859Z,1011.43
2019-02-11T07:24:10.770Z,1011.46
2019-02-11T07:25:10.680Z,1011.46
2019-02-11T07:26:10.594Z,1011.47
2019-02-11T07:27:10.522Z,1011.51
2019-02-11T07:28:10.420Z,1011.54
2019-02-11T07:29:10.331Z,1011.52
2019-02-11T07:30:10.253Z,1011.62
2019-02-11T07:31:11.189Z,1011.64
2019-02-11T07:32:10.193Z,1011.65
2019-02-11T07:33:09.989Z,1011.66
2019-02-11T07:34:09.968Z,1011.68
2019-02-11T07:35:09.826Z,1011.66
2019-02-11T07:36:09.775Z,1011.74
2019-02-11T07:37:09.663Z,1011.75
2019-02-11T07:38:09.581Z,1011.77
2019-02-11T07:39:09.468Z,1011.80
2019-02-11T07:40:09.389Z,1011.77
2019-02-11T07:41:09.297Z,1011.81
2019-02-11T07:42:09.437Z,1011.81
2019-02-11T07:43:09.122Z,1011.85
2019-02-11T07:44:09.222Z,1011.87
2019-02-11T07:45:08.973Z,1011.86
2019-02-11T07:46:08.881Z,1011.87
2019-02-11T07:47:08.853Z,1011.87
2019-02-11T07:48:08.715Z,1011.91
2019-02-11T07:49:08.617Z,1011.92
2019-02-11T07:50:08.642Z,1011.92
2019-02-11T07:51:08.434Z,1011.90
2019-02-11T07:52:08.480Z,1011.94
2019-02-11T07:53:08.267Z,1011.94
2019-02-11T07:54:08.252Z,1011.99
2019-02-11T07:55:08.089Z,1011.95
2019-02-11T07:56:08.004Z,1012.00
2019-02-11T07:57:08.098Z,1012.10
2019-02-11T07:58:07.851Z,1012.20
2019-02-11T07:59:07.742Z,1012.22
2019-02-11T08:00:07.656Z,1012.32
2019-02-11T08:01:07.578Z,1012.38
2019-02-11T08:02:07.499Z,1012.41
2019-02-11T08:03:07.410Z,1012.42
2019-02-11T08:04:07.341Z,1012.37
2019-02-11T08:05:07.305Z,1012.38
2019-02-11T08:06:08.968Z,1012.36
2019-02-11T08:07:07.053Z,1012.30
2019-02-11T08:08:07.148Z,1012.28
2019-02-11T08:09:06.885Z,1012.34
2019-02-11T08:10:06.794Z,1012.38
2019-02-11T08:11:06.727Z,1012.31
2019-02-11T08:12:06.621Z,1012.33
2019-02-11T08:13:06.567Z,1012.40
2019-02-11T08:14:06.454Z,1012.42
2019-02-11T08:15:06.560Z,1012.44
2019-02-11T08:16:06.280Z,1012.44
2019-02-11T08:17:06.358Z,1012.43
2019-02-11T08:18:06.123Z,1012.52
2019-02-11T08:19:06.171Z,1012.49
2019-02-11T08:20:05.942Z,1012.59
2019-02-11T08:21:06.051Z,1012.59
2019-02-11T08:22:05.777Z,1012.64
2019-02-11T08:23:11.966Z,1012.70
2019-02-11T08:24:05.593Z,1012.73
2019-02-11T08:25:05.569Z,1012.75
2019-02-11T08:26:06.253Z,1012.74
2019-02-11T08:27:05.400Z,1012.78
2019-02-11T08:28:05.264Z,1012.78
2019-02-11T08:29:05.213Z,1012.74
2019-02-11T08:30:05.101Z,1012.76
2019-02-11T08:31:05.023Z,1012.77
2019-02-11T08:32:04.907Z,1012.85
2019-02-11T08:33:04.856Z,1012.87
2019-02-11T08:34:04.736Z,1012.89
2019-02-11T08:35:04.840Z,1012.87
2019-02-11T08:36:04.565Z,1012.91
2019-02-11T08:37:04.647Z,1012.96
2019-02-11T08:38:04.408Z,1012.93
2019-02-11T08:39:04.457Z,1013.13
2019-02-11T08:40:04.223Z,1013.04
2019-02-11T08:41:04.266Z,1013.05
2019-02-11T08:42:04.052Z,1013.11
2019-02-11T08:43:04.107Z,1013.16
2019-02-11T08:44:03.878Z,1013.20
2019-02-11T08:45:03.880Z,1013.12
2019-02-11T08:46:03.707Z,1013.08
2019-02-11T08:47:03.620Z,1013.13
2019-02-11T08:48:03.728Z,1013.32
2019-02-11T08:49:03.453Z,1013.27
2019-02-11T08:50:03.364Z,1013.22
2019-02-11T08:51:03.307Z,1013.26
2019-02-11T08:52:03.196Z,1013.30
2019-02-11T08:53:03.152Z,1013.49
2019-02-11T08:54:03.029Z,1013.48
2019-02-11T08:55:03.137Z,1013.46
2019-02-11T08:56:03.501Z,1013.49
2019-02-11T08:57:02.765Z,1013.39
2019-02-11T08:58:02.769Z,1013.61
2019-02-11T08:59:02.592Z,1013.86
2019-02-11T09:00:02.516Z,1013.62
2019-02-11T09:01:02.552Z,1013.52
2019-02-11T09:02:02.344Z,1013.48
2019-02-11T09:03:02.269Z,1013.45
2019-02-11T09:04:02.369Z,1013.57
2019-02-11T09:05:02.082Z,1013.59
2019-02-11T09:06:01.997Z,1013.60
2019-02-11T09:07:01.920Z,1013.64
2019-02-11T09:08:01.842Z,1013.63
2019-02-11T09:09:01.741Z,1013.74
2019-02-11T09:10:01.663Z,1013.77
2019-02-11T09:11:01.570Z,1013.75
2019-02-11T09:12:01.488Z,1013.89
2019-02-11T09:13:01.528Z,1013.89
2019-02-11T09:14:01.321Z,1013.80
2019-02-11T09:15:01.240Z,1013.79
2019-02-11T09:16:01.144Z,1013.83
2019-02-11T09:17:01.066Z,1013.87
2019-02-11T09:18:00.992Z,1013.99
2019-02-11T09:19:00.903Z,1013.92
2019-02-11T09:20:00.805Z,1014.08
2019-02-11T09:21:00.728Z,1014.20
2019-02-11T09:22:07.362Z,1014.13
2019-02-11T09:23:00.556Z,1014.26
2019-02-11T09:24:00.478Z,1014.20
2019-02-11T09:25:00.384Z,1014.10
2019-02-11T09:26:00.293Z,1014.06
2019-02-11T09:27:00.214Z,1014.05
2019-02-11T09:28:00.129Z,1013.98
2019-02-11T09:29:00.060Z,1014.03
2019-02-11T09:29:59.955Z,1014.06
2019-02-11T09:30:59.876Z,1014.02
2019-02-11T09:31:59.827Z,1014.16
2019-02-11T09:32:59.708Z,1013.97
2019-02-11T09:33:59.629Z,1014.06
2019-02-11T09:34:59.536Z,1014.16
2019-02-11T09:35:59.453Z,1014.30
2019-02-11T09:36:59.368Z,1014.31
2019-02-11T09:37:59.280Z,1014.40
2019-02-11T09:38:59.356Z,1014.35
2019-02-11T09:39:59.105Z,1014.38
2019-02-11T09:40:59.133Z,1014.55
2019-02-11T09:41:58.940Z,1014.59
2019-02-11T09:42:58.942Z,1014.38
2019-02-11T09:43:58.809Z,1014.65
2019-02-11T09:44:58.691Z,1014.45
2019-02-11T09:46:03.777Z,1014.53
2019-02-11T09:46:58.518Z,1014.56
2019-02-11T09:47:58.438Z,1014.66
2019-02-11T09:48:58.361Z,1014.90
2019-02-11T09:49:58.265Z,1014.74
2019-02-11T09:50:58.185Z,1014.62
2019-02-11T09:51:58.113Z,1014.50
2019-02-11T09:52:58.014Z,1014.62
2019-02-11T09:53:57.951Z,1014.60
2019-02-11T09:54:57.845Z,1014.73
2019-02-11T09:55:57.761Z,1014.87
2019-02-11T09:56:57.684Z,1014.54
2019-02-11T09:57:57.591Z,1014.48
2019-02-11T09:58:57.530Z,1014.58
2019-02-11T09:59:57.425Z,1014.69
2019-02-11T10:00:57.347Z,1014.75
2019-02-11T10:01:57.273Z,1014.95
2019-02-11T10:02:57.176Z,1014.88
2019-02-11T10:03:57.104Z,1014.89
2019-02-11T10:04:57.023Z,1014.83
2019-02-11T10:05:56.921Z,1014.63
2019-02-11T10:06:56.849Z,1014.70
2019-02-11T10:07:56.754Z,1014.75
2019-02-11T10:08:56.693Z,1014.81
2019-02-11T10:09:56.633Z,1014.85
2019-02-11T10:10:56.506Z,1014.74
2019-02-11T10:11:56.416Z,1014.96
2019-02-11T10:12:56.331Z,1014.90
2019-02-11T10:13:56.268Z,1015.10
2019-02-11T10:14:56.164Z,1015.09
2019-02-11T10:15:56.079Z,1015.19
2019-02-11T10:16:56.093Z,1015.34
2019-02-11T10:17:55.912Z,1015.12
2019-02-11T10:18:55.838Z,1015.18
2019-02-11T10:19:55.908Z,1015.37
2019-02-11T10:20:55.657Z,1015.28
2019-02-11T10:21:55.575Z,1015.20
2019-02-11T10:23:02.196Z,1015.25
2019-02-11T10:23:55.504Z,1015.27
2019-02-11T10:24:55.338Z,1015.21
2019-02-11T10:25:55.354Z,1015.28
2019-02-11T10:26:55.154Z,1015.23
2019-02-11T10:27:55.069Z,1015.39
2019-02-11T10:28:57.035Z,1015.39
2019-02-11T10:29:54.905Z,1015.39
2019-02-11T10:30:54.821Z,1015.49
2019-02-11T10:31:54.740Z,1015.43
2019-02-11T10:32:54.653Z,1015.41
2019-02-11T10:33:54.602Z,1015.32
2019-02-11T10:34:54.493Z,1015.32
2019-02-11T10:35:54.400Z,1015.43
2019-02-11T10:36:54.319Z,1015.48
2019-02-11T10:37:54.240Z,1015.45
2019-02-11T10:38:54.148Z,1015.40
2019-02-11T10:39:54.092Z,1015.42
2019-02-11T10:40:53.985Z,1015.37
2019-02-11T10:41:53.905Z,1015.41
2019-02-11T10:42:53.827Z,1015.77
2019-02-11T10:43:53.816Z,1015.79
2019-02-11T10:44:53.696Z,1015.66
2019-02-11T10:45:53.625Z,1015.71
2019-02-11T10:46:53.481Z,1015.66
2019-02-11T10:47:53.397Z,1015.53
2019-02-11T10:48:53.438Z,1015.51
2019-02-11T10:49:53.250Z,1015.45
2019-02-11T10:50:53.147Z,1015.44
2019-02-11T10:51:53.071Z,1015.46
2019-02-11T10:52:52.982Z,1015.46
2019-02-11T10:53:52.907Z,1015.45
2019-02-11T10:54:52.897Z,1015.46
2019-02-11T10:55:52.733Z,1015.43
2019-02-11T10:56:52.650Z,1015.44
2019-02-11T10:57:52.578Z,1015.43
2019-02-11T10:58:52.481Z,1015.60
2019-02-11T10:59:52.412Z,1015.52
2019-02-11T11:00:52.323Z,1015.63
2019-02-11T11:01:52.232Z,1015.61
2019-02-11T11:02:52.147Z,1015.58
2019-02-11T11:03:53.071Z,1015.63
2019-02-11T11:04:51.996Z,1015.65
2019-02-11T11:05:51.963Z,1015.64
2019-02-11T11:06:51.813Z,1015.57
2019-02-11T11:07:51.728Z,1015.62
2019-02-11T11:08:51.726Z,1015.66
2019-02-11T11:09:51.581Z,1015.67
2019-02-11T11:10:51.478Z,1015.67
2019-02-11T11:11:51.400Z,1015.64
2019-02-11T11:12:51.313Z,1015.56
2019-02-11T11:13:51.228Z,1015.59
2019-02-11T11:14:51.163Z,1015.62
2019-02-11T11:15:51.058Z,1015.64
2019-02-11T11:16:50.973Z,1015.64
2019-02-11T11:17:50.896Z,1015.59
2019-02-11T11:18:50.807Z,1015.61
2019-02-11T11:19:50.739Z,1015.67
2019-02-11T11:20:50.643Z,1015.77
2019-02-11T11:21:50.556Z,1015.83
2019-02-11T11:22:50.470Z,1015.82
2019-02-11T11:23:50.397Z,1015.77
2019-02-11T11:24:50.317Z,1015.75
2019-02-11T11:25:50.222Z,1015.70
2019-02-11T11:26:50.145Z,1015.75
2019-02-11T11:27:50.054Z,1015.80
2019-02-11T11:28:49.974Z,1015.80
2019-02-11T11:29:49.904Z,1015.79
2019-02-11T11:30:49.810Z,1015.75
2019-02-11T11:31:49.715Z,1015.84
2019-02-11T11:32:49.640Z,1015.89
2019-02-11T11:33:49.550Z,1015.89
2019-02-11T11:34:49.558Z,1015.88
2019-02-11T11:35:49.382Z,1015.84
2019-02-11T11:36:49.355Z,1015.84
2019-02-11T11:37:49.223Z,1015.83
2019-02-11T11:38:49.134Z,1015.89
2019-02-11T11:39:49.060Z,1015.94
2019-02-11T11:40:48.967Z,1015.91
2019-02-11T11:41:48.887Z,1016.03
2019-02-11T11:42:48.799Z,1016.00
2019-02-11T11:43:48.713Z,1016.06
2019-02-11T11:44:48.646Z,1016.00
2019-02-11T11:45:48.544Z,1015.95
2019-02-11T11:46:48.461Z,1016.09
2019-02-11T11:47:48.377Z,1016.13
2019-02-11T11:48:48.305Z,1016.06
2019-02-11T11:49:48.254Z,1016.08
2019-02-11T11:50:48.121Z,1016.06
2019-02-11T11:51:48.037Z,1016.12
2019-02-11T11:52:47.984Z,1016.05
2019-02-11T11:53:47.880Z,1016.14
2019-02-11T11:54:47.780Z,1016.16
2019-02-11T11:55:47.735Z,1016.11
2019-02-11T11:56:47.614Z,1016.17
2019-02-11T11:57:47.580Z,1016.25
2019-02-11T11:58:47.457Z,1016.24
2019-02-11T11:59:47.362Z,1016.24
2019-02-11T12:00:47.303Z,1016.22
2019-02-11T12:01:47.207Z,1016.29
2019-02-11T12:03:00.450Z,1016.38
2019-02-11T12:03:47.020Z,1016.38
2019-02-11T12:04:46.942Z,1016.49